sensor_id;sensor_type;location;lat;lon;timestamp;temperature;humidity
22966;DHT22;11649;48.090;9.754;2022-10-16T00:02:22;13.40;99.90
22966;DHT22;11649;48.090;9.754;2022-10-16T00:04:49;13.40;99.90
22966;DHT22;11649;48.090;9.754;2022-10-16T00:07:16;13.40;99.90
22966;DHT22;11649;48.090;9.754;2022-10-16T00:09:43;13.40;99.90
22966;DHT22;11649;48.090;9.754;2022-10-16T00:12:10;13.20;99.90
22966;DHT22;11649;48.090;9.754;2022-10-16T00:14:36;13.10;99.90
22966;DHT22;11649;48.090;9.754;2022-10-16T00:17:03;13.00;99.90
22966;DHT22;11649;48.090;9.754;2022-10-16T00:19:30;13.10;99.90
22966;DHT22;11649;48.090;9.754;2022-10-16T00:21:57;13.10;99.90
22966;DHT22;11649;48.090;9.754;2022-10-16T00:24:23;13.20;99.90
22966;DHT22;11649;48.090;9.754;2022-10-16T00:26:50;13.30;99.90
22966;DHT22;11649;48.090;9.754;2022-10-16T00:29:17;13.30;99.90
22966;DHT22;11649;48.090;9.754;2022-10-16T00:31:44;13.30;99.90
22966;DHT22;11649;48.090;9.754;2022-10-16T00:34:11;13.10;99.90
22966;DHT22;11649;48.090;9.754;2022-10-16T00:36:37;13.20;99.90
22966;DHT22;11649;48.090;9.754;2022-10-16T00:39:04;13.40;99.90
22966;DHT22;11649;48.090;9.754;2022-10-16T00:41:32;13.20;99.90
22966;DHT22;11649;48.090;9.754;2022-10-16T00:44:02;13.20;99.90
22966;DHT22;11649;48.090;9.754;2022-10-16T00:46:31;13.20;99.90
22966;DHT22;11649;48.090;9.754;2022-10-16T00:49:04;13.20;99.90
22966;DHT22;11649;48.090;9.754;2022-10-16T00:51:37;13.20;99.90
22966;DHT22;11649;48.090;9.754;2022-10-16T00:54:12;13.20;99.90
22966;DHT22;11649;48.090;9.754;2022-10-16T00:56:41;13.10;99.90
22966;DHT22;11649;48.090;9.754;2022-10-16T00:59:18;13.10;99.90
22966;DHT22;11649;48.090;9.754;2022-10-16T01:01:45;13.20;99.90
22966;DHT22;11649;48.090;9.754;2022-10-16T01:04:12;13.20;99.90
22966;DHT22;11649;48.090;9.754;2022-10-16T01:06:53;13.20;99.90
22966;DHT22;11649;48.090;9.754;2022-10-16T01:12:23;13.30;99.90
22966;DHT22;11649;48.090;9.754;2022-10-16T01:15:07;13.30;99.90
22966;DHT22;11649;48.090;9.754;2022-10-16T01:20:34;13.20;99.90
22966;DHT22;11649;48.090;9.754;2022-10-16T01:28:55;13.30;99.90
22966;DHT22;11649;48.090;9.754;2022-10-16T01:31:29;13.30;99.90
22966;DHT22;11649;48.090;9.754;2022-10-16T01:34:33;13.20;99.90
22966;DHT22;11649;48.090;9.754;2022-10-16T01:37:22;13.20;99.90
22966;DHT22;11649;48.090;9.754;2022-10-16T01:39:55;13.20;99.90
22966;DHT22;11649;48.090;9.754;2022-10-16T01:42:30;13.20;99.90
22966;DHT22;11649;48.090;9.754;2022-10-16T01:45:01;13.20;99.90
22966;DHT22;11649;48.090;9.754;2022-10-16T01:47:30;13.20;99.90
22966;DHT22;11649;48.090;9.754;2022-10-16T01:49:58;13.30;99.90
22966;DHT22;11649;48.090;9.754;2022-10-16T01:52:27;13.20;99.90
22966;DHT22;11649;48.090;9.754;2022-10-16T01:54:56;13.60;99.90
22966;DHT22;11649;48.090;9.754;2022-10-16T01:57:25;13.30;99.90
22966;DHT22;11649;48.090;9.754;2022-10-16T01:59:56;13.40;99.90
22966;DHT22;11649;48.090;9.754;2022-10-16T02:02:27;13.20;99.90
22966;DHT22;11649;48.090;9.754;2022-10-16T02:04:59;13.50;99.90
22966;DHT22;11649;48.090;9.754;2022-10-16T02:07:28;13.40;99.90
22966;DHT22;11649;48.090;9.754;2022-10-16T02:09:55;13.40;99.90
22966;DHT22;11649;48.090;9.754;2022-10-16T02:12:31;13.30;99.90
22966;DHT22;11649;48.090;9.754;2022-10-16T02:14:59;13.20;99.90
22966;DHT22;11649;48.090;9.754;2022-10-16T02:17:26;13.20;99.90
22966;DHT22;11649;48.090;9.754;2022-10-16T02:19:55;13.30;99.90
22966;DHT22;11649;48.090;9.754;2022-10-16T02:22:43;13.40;99.90
22966;DHT22;11649;48.090;9.754;2022-10-16T02:25:26;13.40;99.90
22966;DHT22;11649;48.090;9.754;2022-10-16T02:28:05;13.50;99.90
22966;DHT22;11649;48.090;9.754;2022-10-16T02:30:41;13.50;99.90
22966;DHT22;11649;48.090;9.754;2022-10-16T02:33:10;13.30;99.90
22966;DHT22;11649;48.090;9.754;2022-10-16T02:35:40;13.20;99.90
22966;DHT22;11649;48.090;9.754;2022-10-16T02:38:08;13.20;99.90
22966;DHT22;11649;48.090;9.754;2022-10-16T02:40:40;13.20;99.90
22966;DHT22;11649;48.090;9.754;2022-10-16T02:43:07;13.40;99.90
22966;DHT22;11649;48.090;9.754;2022-10-16T02:45:35;13.90;99.90
22966;DHT22;11649;48.090;9.754;2022-10-16T02:48:02;13.60;99.90
22966;DHT22;11649;48.090;9.754;2022-10-16T02:50:29;13.50;99.90
22966;DHT22;11649;48.090;9.754;2022-10-16T02:52:55;13.30;99.90
22966;DHT22;11649;48.090;9.754;2022-10-16T02:55:22;13.20;99.90
22966;DHT22;11649;48.090;9.754;2022-10-16T02:57:49;13.40;99.90
22966;DHT22;11649;48.090;9.754;2022-10-16T03:00:17;13.50;99.90
22966;DHT22;11649;48.090;9.754;2022-10-16T03:02:44;13.50;99.90
22966;DHT22;11649;48.090;9.754;2022-10-16T03:05:11;13.40;99.90
22966;DHT22;11649;48.090;9.754;2022-10-16T03:07:38;14.10;99.90
22966;DHT22;11649;48.090;9.754;2022-10-16T03:10:05;13.60;99.90
22966;DHT22;11649;48.090;9.754;2022-10-16T03:12:33;13.50;99.90
22966;DHT22;11649;48.090;9.754;2022-10-16T03:14:59;13.50;99.90
22966;DHT22;11649;48.090;9.754;2022-10-16T03:17:27;13.20;99.90
22966;DHT22;11649;48.090;9.754;2022-10-16T03:19:54;13.50;99.90
22966;DHT22;11649;48.090;9.754;2022-10-16T03:22:21;13.50;99.90
22966;DHT22;11649;48.090;9.754;2022-10-16T03:24:48;13.50;99.90
22966;DHT22;11649;48.090;9.754;2022-10-16T03:27:14;13.50;99.90
22966;DHT22;11649;48.090;9.754;2022-10-16T03:29:41;14.00;99.90
22966;DHT22;11649;48.090;9.754;2022-10-16T03:32:09;13.50;99.90
22966;DHT22;11649;48.090;9.754;2022-10-16T03:34:36;13.20;99.90
22966;DHT22;11649;48.090;9.754;2022-10-16T03:37:03;13.50;99.90
22966;DHT22;11649;48.090;9.754;2022-10-16T03:39:30;13.30;99.90
22966;DHT22;11649;48.090;9.754;2022-10-16T03:41:57;13.40;99.90
22966;DHT22;11649;48.090;9.754;2022-10-16T03:44:24;13.40;99.90
22966;DHT22;11649;48.090;9.754;2022-10-16T03:46:50;13.70;99.90
22966;DHT22;11649;48.090;9.754;2022-10-16T03:49:17;13.40;99.90
22966;DHT22;11649;48.090;9.754;2022-10-16T03:51:44;13.50;99.90
22966;DHT22;11649;48.090;9.754;2022-10-16T03:54:11;13.60;99.90
22966;DHT22;11649;48.090;9.754;2022-10-16T03:56:38;13.30;99.90
22966;DHT22;11649;48.090;9.754;2022-10-16T03:59:05;13.20;99.90
22966;DHT22;11649;48.090;9.754;2022-10-16T04:01:31;13.20;99.90
22966;DHT22;11649;48.090;9.754;2022-10-16T04:03:58;12.90;99.90
22966;DHT22;11649;48.090;9.754;2022-10-16T04:06:25;13.10;99.90
22966;DHT22;11649;48.090;9.754;2022-10-16T04:08:52;13.50;99.90
22966;DHT22;11649;48.090;9.754;2022-10-16T04:11:18;13.70;99.90
22966;DHT22;11649;48.090;9.754;2022-10-16T04:13:45;13.10;99.90
22966;DHT22;11649;48.090;9.754;2022-10-16T04:16:12;12.80;99.90
22966;DHT22;11649;48.090;9.754;2022-10-16T04:18:39;13.80;99.90
22966;DHT22;11649;48.090;9.754;2022-10-16T04:21:06;13.20;99.90
22966;DHT22;11649;48.090;9.754;2022-10-16T04:23:33;13.10;99.90
22966;DHT22;11649;48.090;9.754;2022-10-16T04:26:00;13.50;99.90
22966;DHT22;11649;48.090;9.754;2022-10-16T04:28:27;13.20;99.90
22966;DHT22;11649;48.090;9.754;2022-10-16T04:30:54;13.20;99.90
22966;DHT22;11649;48.090;9.754;2022-10-16T04:33:21;13.00;99.90
22966;DHT22;11649;48.090;9.754;2022-10-16T04:35:47;13.30;99.90
22966;DHT22;11649;48.090;9.754;2022-10-16T04:38:14;13.30;99.90
22966;DHT22;11649;48.090;9.754;2022-10-16T04:40:42;13.10;99.90
22966;DHT22;11649;48.090;9.754;2022-10-16T04:43:09;13.60;99.90
22966;DHT22;11649;48.090;9.754;2022-10-16T04:45:36;13.70;99.90
22966;DHT22;11649;48.090;9.754;2022-10-16T04:48:02;13.90;99.90
22966;DHT22;11649;48.090;9.754;2022-10-16T04:50:29;13.10;99.90
22966;DHT22;11649;48.090;9.754;2022-10-16T04:52:56;13.30;99.90
22966;DHT22;11649;48.090;9.754;2022-10-16T04:55:23;13.10;99.90
22966;DHT22;11649;48.090;9.754;2022-10-16T04:57:49;13.20;99.90
22966;DHT22;11649;48.090;9.754;2022-10-16T05:00:16;13.20;99.90
22966;DHT22;11649;48.090;9.754;2022-10-16T05:02:43;13.10;99.90
22966;DHT22;11649;48.090;9.754;2022-10-16T05:05:10;13.10;99.90
22966;DHT22;11649;48.090;9.754;2022-10-16T05:07:38;12.90;99.90
22966;DHT22;11649;48.090;9.754;2022-10-16T05:10:05;12.90;99.90
22966;DHT22;11649;48.090;9.754;2022-10-16T05:12:33;12.90;99.90
22966;DHT22;11649;48.090;9.754;2022-10-16T05:14:59;12.90;99.90
22966;DHT22;11649;48.090;9.754;2022-10-16T05:17:26;12.90;99.90
22966;DHT22;11649;48.090;9.754;2022-10-16T05:19:54;12.70;99.90
22966;DHT22;11649;48.090;9.754;2022-10-16T05:22:21;12.70;99.90
22966;DHT22;11649;48.090;9.754;2022-10-16T05:24:47;12.80;99.90
22966;DHT22;11649;48.090;9.754;2022-10-16T05:27:14;13.00;99.90
22966;DHT22;11649;48.090;9.754;2022-10-16T05:29:46;13.00;99.90
22966;DHT22;11649;48.090;9.754;2022-10-16T05:32:15;12.70;99.90
22966;DHT22;11649;48.090;9.754;2022-10-16T05:34:42;12.30;99.90
22966;DHT22;11649;48.090;9.754;2022-10-16T05:37:09;12.80;99.90
22966;DHT22;11649;48.090;9.754;2022-10-16T05:39:36;12.90;99.90
22966;DHT22;11649;48.090;9.754;2022-10-16T05:42:04;12.80;99.90
22966;DHT22;11649;48.090;9.754;2022-10-16T05:44:31;12.90;99.90
22966;DHT22;11649;48.090;9.754;2022-10-16T05:47:03;12.50;99.90
22966;DHT22;11649;48.090;9.754;2022-10-16T05:49:29;13.20;99.90
22966;DHT22;11649;48.090;9.754;2022-10-16T05:51:56;13.00;99.90
22966;DHT22;11649;48.090;9.754;2022-10-16T05:54:23;12.70;99.90
22966;DHT22;11649;48.090;9.754;2022-10-16T05:56:50;12.50;99.90
22966;DHT22;11649;48.090;9.754;2022-10-16T05:59:17;12.70;99.90
22966;DHT22;11649;48.090;9.754;2022-10-16T06:01:43;13.10;99.90
22966;DHT22;11649;48.090;9.754;2022-10-16T06:04:10;12.80;99.90
22966;DHT22;11649;48.090;9.754;2022-10-16T06:06:42;12.80;99.90
22966;DHT22;11649;48.090;9.754;2022-10-16T06:09:09;12.60;99.90
22966;DHT22;11649;48.090;9.754;2022-10-16T06:11:36;12.70;99.90
22966;DHT22;11649;48.090;9.754;2022-10-16T06:14:03;13.60;99.90
22966;DHT22;11649;48.090;9.754;2022-10-16T06:16:37;13.40;99.90
22966;DHT22;11649;48.090;9.754;2022-10-16T06:19:04;13.00;99.90
22966;DHT22;11649;48.090;9.754;2022-10-16T06:21:33;13.20;99.90
22966;DHT22;11649;48.090;9.754;2022-10-16T06:23:59;13.30;99.90
22966;DHT22;11649;48.090;9.754;2022-10-16T06:26:28;13.20;99.90
22966;DHT22;11649;48.090;9.754;2022-10-16T06:28:56;13.20;99.90
22966;DHT22;11649;48.090;9.754;2022-10-16T06:31:24;13.20;99.90
22966;DHT22;11649;48.090;9.754;2022-10-16T06:33:57;13.00;99.90
22966;DHT22;11649;48.090;9.754;2022-10-16T06:36:25;13.30;99.90
22966;DHT22;11649;48.090;9.754;2022-10-16T06:38:52;13.00;99.90
22966;DHT22;11649;48.090;9.754;2022-10-16T06:41:21;13.20;99.90
22966;DHT22;11649;48.090;9.754;2022-10-16T06:43:48;13.80;99.90
22966;DHT22;11649;48.090;9.754;2022-10-16T06:46:17;13.30;99.90
22966;DHT22;11649;48.090;9.754;2022-10-16T06:48:44;13.30;99.90
22966;DHT22;11649;48.090;9.754;2022-10-16T06:51:15;13.40;99.90
22966;DHT22;11649;48.090;9.754;2022-10-16T06:53:50;13.40;99.90
22966;DHT22;11649;48.090;9.754;2022-10-16T06:56:33;13.50;99.90
22966;DHT22;11649;48.090;9.754;2022-10-16T06:59:00;14.00;99.90
22966;DHT22;11649;48.090;9.754;2022-10-16T07:01:27;13.90;99.90
22966;DHT22;11649;48.090;9.754;2022-10-16T07:03:54;14.00;99.90
22966;DHT22;11649;48.090;9.754;2022-10-16T07:06:23;14.10;99.90
22966;DHT22;11649;48.090;9.754;2022-10-16T07:08:50;13.80;99.90
22966;DHT22;11649;48.090;9.754;2022-10-16T07:11:22;13.90;99.90
22966;DHT22;11649;48.090;9.754;2022-10-16T07:13:50;14.50;99.90
22966;DHT22;11649;48.090;9.754;2022-10-16T07:16:26;13.80;99.90
22966;DHT22;11649;48.090;9.754;2022-10-16T07:18:59;13.90;99.90
22966;DHT22;11649;48.090;9.754;2022-10-16T07:21:32;14.00;99.90
22966;DHT22;11649;48.090;9.754;2022-10-16T07:24:04;14.40;99.90
22966;DHT22;11649;48.090;9.754;2022-10-16T07:26:33;14.20;99.90
22966;DHT22;11649;48.090;9.754;2022-10-16T07:29:00;14.20;99.90
22966;DHT22;11649;48.090;9.754;2022-10-16T07:31:28;14.30;99.90
22966;DHT22;11649;48.090;9.754;2022-10-16T07:33:55;14.20;99.90
22966;DHT22;11649;48.090;9.754;2022-10-16T07:36:24;14.30;99.90
22966;DHT22;11649;48.090;9.754;2022-10-16T07:38:50;14.40;99.90
22966;DHT22;11649;48.090;9.754;2022-10-16T07:41:22;14.40;99.90
22966;DHT22;11649;48.090;9.754;2022-10-16T07:43:51;14.60;99.90
22966;DHT22;11649;48.090;9.754;2022-10-16T07:46:19;14.70;99.90
22966;DHT22;11649;48.090;9.754;2022-10-16T07:48:47;14.80;99.90
22966;DHT22;11649;48.090;9.754;2022-10-16T07:51:16;14.70;99.90
22966;DHT22;11649;48.090;9.754;2022-10-16T07:53:44;14.80;99.90
22966;DHT22;11649;48.090;9.754;2022-10-16T07:56:11;14.90;99.90
22966;DHT22;11649;48.090;9.754;2022-10-16T07:58:39;15.20;99.90
22966;DHT22;11649;48.090;9.754;2022-10-16T08:01:08;15.20;99.90
22966;DHT22;11649;48.090;9.754;2022-10-16T08:03:36;15.30;99.90
22966;DHT22;11649;48.090;9.754;2022-10-16T08:06:03;15.30;99.90
22966;DHT22;11649;48.090;9.754;2022-10-16T08:08:31;15.30;99.90
22966;DHT22;11649;48.090;9.754;2022-10-16T08:10:57;15.40;99.90
22966;DHT22;11649;48.090;9.754;2022-10-16T08:13:25;15.80;99.90
22966;DHT22;11649;48.090;9.754;2022-10-16T08:15:54;15.30;99.90
22966;DHT22;11649;48.090;9.754;2022-10-16T08:18:21;15.40;99.90
22966;DHT22;11649;48.090;9.754;2022-10-16T08:20:54;15.50;99.90
22966;DHT22;11649;48.090;9.754;2022-10-16T08:23:21;15.50;99.90
22966;DHT22;11649;48.090;9.754;2022-10-16T08:25:48;15.60;99.90
22966;DHT22;11649;48.090;9.754;2022-10-16T08:28:14;15.60;99.90
22966;DHT22;11649;48.090;9.754;2022-10-16T08:30:43;15.70;99.90
22966;DHT22;11649;48.090;9.754;2022-10-16T08:33:10;15.70;99.90
22966;DHT22;11649;48.090;9.754;2022-10-16T08:35:37;15.70;99.90
22966;DHT22;11649;48.090;9.754;2022-10-16T08:38:05;15.80;99.90
22966;DHT22;11649;48.090;9.754;2022-10-16T08:40:36;15.80;99.90
22966;DHT22;11649;48.090;9.754;2022-10-16T08:46:15;15.80;99.90
22966;DHT22;11649;48.090;9.754;2022-10-16T08:48:58;15.90;99.90
22966;DHT22;11649;48.090;9.754;2022-10-16T08:51:28;15.90;99.90
22966;DHT22;11649;48.090;9.754;2022-10-16T08:53:58;16.00;99.90
22966;DHT22;11649;48.090;9.754;2022-10-16T08:56:26;16.00;99.90
22966;DHT22;11649;48.090;9.754;2022-10-16T08:58:53;16.00;99.90
22966;DHT22;11649;48.090;9.754;2022-10-16T09:01:47;16.10;99.90
22966;DHT22;11649;48.090;9.754;2022-10-16T09:07:10;16.20;99.90
22966;DHT22;11649;48.090;9.754;2022-10-16T09:10:00;16.30;99.90
22966;DHT22;11649;48.090;9.754;2022-10-16T09:12:48;16.20;99.90
22966;DHT22;11649;48.090;9.754;2022-10-16T09:15:44;16.20;99.90
22966;DHT22;11649;48.090;9.754;2022-10-16T09:18:27;16.20;99.90
22966;DHT22;11649;48.090;9.754;2022-10-16T09:21:00;16.30;99.90
22966;DHT22;11649;48.090;9.754;2022-10-16T09:23:30;16.40;99.90
22966;DHT22;11649;48.090;9.754;2022-10-16T09:25:58;16.40;99.90
22966;DHT22;11649;48.090;9.754;2022-10-16T09:28:25;16.60;99.90
22966;DHT22;11649;48.090;9.754;2022-10-16T09:30:52;16.50;99.90
22966;DHT22;11649;48.090;9.754;2022-10-16T09:33:23;16.60;99.90
22966;DHT22;11649;48.090;9.754;2022-10-16T09:35:53;16.60;99.90
22966;DHT22;11649;48.090;9.754;2022-10-16T09:38:32;16.70;99.90
22966;DHT22;11649;48.090;9.754;2022-10-16T09:41:19;16.70;99.90
22966;DHT22;11649;48.090;9.754;2022-10-16T09:46:31;16.80;99.90
22966;DHT22;11649;48.090;9.754;2022-10-16T09:49:27;16.90;99.90
22966;DHT22;11649;48.090;9.754;2022-10-16T09:52:14;17.10;99.90
22966;DHT22;11649;48.090;9.754;2022-10-16T09:55:15;17.30;99.90
22966;DHT22;11649;48.090;9.754;2022-10-16T09:57:52;17.40;99.90
22966;DHT22;11649;48.090;9.754;2022-10-16T10:00:20;17.50;99.90
22966;DHT22;11649;48.090;9.754;2022-10-16T10:02:47;17.70;99.90
22966;DHT22;11649;48.090;9.754;2022-10-16T10:05:33;17.40;99.90
22966;DHT22;11649;48.090;9.754;2022-10-16T10:08:00;17.50;99.90
22966;DHT22;11649;48.090;9.754;2022-10-16T10:10:31;17.60;99.90
22966;DHT22;11649;48.090;9.754;2022-10-16T10:12:58;17.70;99.90
22966;DHT22;11649;48.090;9.754;2022-10-16T10:15:28;17.70;99.90
22966;DHT22;11649;48.090;9.754;2022-10-16T10:17:59;17.80;99.90
22966;DHT22;11649;48.090;9.754;2022-10-16T10:20:31;17.90;99.90
22966;DHT22;11649;48.090;9.754;2022-10-16T10:23:13;18.10;99.90
22966;DHT22;11649;48.090;9.754;2022-10-16T10:31:36;18.60;99.90
22966;DHT22;11649;48.090;9.754;2022-10-16T10:37:43;19.00;99.90
22966;DHT22;11649;48.090;9.754;2022-10-16T10:42:56;19.20;99.90
22966;DHT22;11649;48.090;9.754;2022-10-16T10:45:28;19.20;99.90
22966;DHT22;11649;48.090;9.754;2022-10-16T10:50:54;19.30;99.90
22966;DHT22;11649;48.090;9.754;2022-10-16T10:53:45;19.50;99.90
22966;DHT22;11649;48.090;9.754;2022-10-16T10:56:34;19.40;99.90
22966;DHT22;11649;48.090;9.754;2022-10-16T11:02:15;19.30;99.90
22966;DHT22;11649;48.090;9.754;2022-10-16T11:07:33;19.30;99.90
22966;DHT22;11649;48.090;9.754;2022-10-16T11:10:13;19.20;99.90
22966;DHT22;11649;48.090;9.754;2022-10-16T11:12:45;19.40;99.90
22966;DHT22;11649;48.090;9.754;2022-10-16T11:20:40;19.60;99.90
22966;DHT22;11649;48.090;9.754;2022-10-16T11:23:19;19.70;99.90
22966;DHT22;11649;48.090;9.754;2022-10-16T11:25:48;19.70;99.90
22966;DHT22;11649;48.090;9.754;2022-10-16T11:28:23;19.90;99.90
22966;DHT22;11649;48.090;9.754;2022-10-16T11:31:08;20.00;99.90
22966;DHT22;11649;48.090;9.754;2022-10-16T11:33:51;20.10;99.90
22966;DHT22;11649;48.090;9.754;2022-10-16T11:36:41;20.10;99.90
22966;DHT22;11649;48.090;9.754;2022-10-16T11:39:19;20.30;99.90
22966;DHT22;11649;48.090;9.754;2022-10-16T11:42:11;20.40;99.90
22966;DHT22;11649;48.090;9.754;2022-10-16T11:47:45;20.70;97.40
22966;DHT22;11649;48.090;9.754;2022-10-16T11:50:55;20.80;97.30
22966;DHT22;11649;48.090;9.754;2022-10-16T11:55:52;20.80;93.00
22966;DHT22;11649;48.090;9.754;2022-10-16T11:58:41;20.80;93.30
22966;DHT22;11649;48.090;9.754;2022-10-16T12:01:30;20.70;94.60
22966;DHT22;11649;48.090;9.754;2022-10-16T12:09:28;20.90;92.50
22966;DHT22;11649;48.090;9.754;2022-10-16T12:11:56;20.90;89.50
22966;DHT22;11649;48.090;9.754;2022-10-16T12:22:52;21.20;89.20
22966;DHT22;11649;48.090;9.754;2022-10-16T12:27:56;21.10;90.20
22966;DHT22;11649;48.090;9.754;2022-10-16T12:30:25;21.00;83.40
22966;DHT22;11649;48.090;9.754;2022-10-16T12:33:33;21.10;83.70
22966;DHT22;11649;48.090;9.754;2022-10-16T12:35:51;21.30;77.50
22966;DHT22;11649;48.090;9.754;2022-10-16T12:38:21;21.50;75.70
22966;DHT22;11649;48.090;9.754;2022-10-16T12:41:00;21.50;78.60
22966;DHT22;11649;48.090;9.754;2022-10-16T12:43:36;21.50;80.00
22966;DHT22;11649;48.090;9.754;2022-10-16T12:46:05;21.70;75.30
22966;DHT22;11649;48.090;9.754;2022-10-16T12:48:46;21.50;75.10
22966;DHT22;11649;48.090;9.754;2022-10-16T12:54:03;21.80;73.00
22966;DHT22;11649;48.090;9.754;2022-10-16T13:08:09;21.60;73.80
22966;DHT22;11649;48.090;9.754;2022-10-16T13:22:38;22.00;80.50
22966;DHT22;11649;48.090;9.754;2022-10-16T13:25:29;22.10;85.20
22966;DHT22;11649;48.090;9.754;2022-10-16T13:28:05;22.00;83.80
22966;DHT22;11649;48.090;9.754;2022-10-16T13:30:53;22.10;82.40
22966;DHT22;11649;48.090;9.754;2022-10-16T13:33:39;22.10;81.60
22966;DHT22;11649;48.090;9.754;2022-10-16T13:36:06;22.20;82.20
22966;DHT22;11649;48.090;9.754;2022-10-16T13:38:34;22.40;81.40
22966;DHT22;11649;48.090;9.754;2022-10-16T13:43:31;22.70;70.00
22966;DHT22;11649;48.090;9.754;2022-10-16T13:48:31;23.10;70.70
22966;DHT22;11649;48.090;9.754;2022-10-16T13:51:04;23.30;70.10
22966;DHT22;11649;48.090;9.754;2022-10-16T13:53:33;23.30;70.90
22966;DHT22;11649;48.090;9.754;2022-10-16T13:56:02;23.20;72.40
22966;DHT22;11649;48.090;9.754;2022-10-16T13:58:30;23.10;74.70
22966;DHT22;11649;48.090;9.754;2022-10-16T14:01:00;23.10;71.10
22966;DHT22;11649;48.090;9.754;2022-10-16T14:03:28;22.90;76.00
22966;DHT22;11649;48.090;9.754;2022-10-16T14:06:02;22.80;75.60
22966;DHT22;11649;48.090;9.754;2022-10-16T14:08:29;22.40;80.80
22966;DHT22;11649;48.090;9.754;2022-10-16T14:10:59;22.30;79.00
22966;DHT22;11649;48.090;9.754;2022-10-16T14:16:05;22.10;77.00
22966;DHT22;11649;48.090;9.754;2022-10-16T14:18:32;21.90;76.90
22966;DHT22;11649;48.090;9.754;2022-10-16T14:21:11;21.90;77.30
22966;DHT22;11649;48.090;9.754;2022-10-16T14:23:40;21.80;80.50
22966;DHT22;11649;48.090;9.754;2022-10-16T14:28:41;21.80;80.80
22966;DHT22;11649;48.090;9.754;2022-10-16T14:31:27;21.90;79.80
22966;DHT22;11649;48.090;9.754;2022-10-16T14:33:54;21.80;77.60
22966;DHT22;11649;48.090;9.754;2022-10-16T14:36:22;21.80;78.10
22966;DHT22;11649;48.090;9.754;2022-10-16T14:39:03;22.00;78.40
22966;DHT22;11649;48.090;9.754;2022-10-16T14:41:33;22.20;78.00
22966;DHT22;11649;48.090;9.754;2022-10-16T14:44:11;22.20;76.90
22966;DHT22;11649;48.090;9.754;2022-10-16T14:46:40;22.10;80.40
22966;DHT22;11649;48.090;9.754;2022-10-16T14:51:39;22.00;79.90
22966;DHT22;11649;48.090;9.754;2022-10-16T14:54:15;21.90;74.90
22966;DHT22;11649;48.090;9.754;2022-10-16T14:56:54;21.70;76.50
22966;DHT22;11649;48.090;9.754;2022-10-16T14:59:39;21.50;78.60
22966;DHT22;11649;48.090;9.754;2022-10-16T15:02:32;21.40;78.10
22966;DHT22;11649;48.090;9.754;2022-10-16T15:05:13;21.40;80.80
22966;DHT22;11649;48.090;9.754;2022-10-16T15:07:40;21.30;82.10
22966;DHT22;11649;48.090;9.754;2022-10-16T15:10:07;21.30;83.00
22966;DHT22;11649;48.090;9.754;2022-10-16T15:12:34;21.10;85.00
22966;DHT22;11649;48.090;9.754;2022-10-16T15:15:00;21.00;87.30
22966;DHT22;11649;48.090;9.754;2022-10-16T15:17:27;20.80;90.60
22966;DHT22;11649;48.090;9.754;2022-10-16T15:19:54;20.90;90.90
22966;DHT22;11649;48.090;9.754;2022-10-16T15:22:21;20.80;89.70
22966;DHT22;11649;48.090;9.754;2022-10-16T15:24:49;20.80;90.40
22966;DHT22;11649;48.090;9.754;2022-10-16T15:27:16;20.70;90.50
22966;DHT22;11649;48.090;9.754;2022-10-16T15:29:43;20.70;91.30
22966;DHT22;11649;48.090;9.754;2022-10-16T15:32:10;20.50;96.30
22966;DHT22;11649;48.090;9.754;2022-10-16T15:34:37;20.30;98.50
22966;DHT22;11649;48.090;9.754;2022-10-16T15:37:04;20.20;98.20
22966;DHT22;11649;48.090;9.754;2022-10-16T15:39:31;20.10;98.00
22966;DHT22;11649;48.090;9.754;2022-10-16T15:42:01;20.10;98.90
22966;DHT22;11649;48.090;9.754;2022-10-16T15:44:27;20.10;98.80
22966;DHT22;11649;48.090;9.754;2022-10-16T15:46:56;20.00;99.60
22966;DHT22;11649;48.090;9.754;2022-10-16T15:49:23;19.80;99.90
22966;DHT22;11649;48.090;9.754;2022-10-16T15:51:50;19.70;99.90
22966;DHT22;11649;48.090;9.754;2022-10-16T15:54:19;19.60;99.90
22966;DHT22;11649;48.090;9.754;2022-10-16T15:56:48;19.50;99.90
22966;DHT22;11649;48.090;9.754;2022-10-16T15:59:15;19.40;99.90
22966;DHT22;11649;48.090;9.754;2022-10-16T16:01:42;19.30;99.90
22966;DHT22;11649;48.090;9.754;2022-10-16T16:04:08;19.20;99.90
22966;DHT22;11649;48.090;9.754;2022-10-16T16:06:45;19.00;99.90
22966;DHT22;11649;48.090;9.754;2022-10-16T16:09:13;18.90;99.90
22966;DHT22;11649;48.090;9.754;2022-10-16T16:11:41;18.90;99.90
22966;DHT22;11649;48.090;9.754;2022-10-16T16:14:12;18.70;99.90
22966;DHT22;11649;48.090;9.754;2022-10-16T16:16:39;18.60;99.90
22966;DHT22;11649;48.090;9.754;2022-10-16T16:19:07;18.40;99.90
22966;DHT22;11649;48.090;9.754;2022-10-16T16:21:38;18.20;99.90
22966;DHT22;11649;48.090;9.754;2022-10-16T16:24:05;18.20;99.90
22966;DHT22;11649;48.090;9.754;2022-10-16T16:26:35;18.00;99.90
22966;DHT22;11649;48.090;9.754;2022-10-16T16:29:04;17.90;99.90
22966;DHT22;11649;48.090;9.754;2022-10-16T16:31:32;17.80;99.90
22966;DHT22;11649;48.090;9.754;2022-10-16T16:33:59;17.80;99.90
22966;DHT22;11649;48.090;9.754;2022-10-16T16:36:26;17.70;99.90
22966;DHT22;11649;48.090;9.754;2022-10-16T16:38:53;17.70;99.90
22966;DHT22;11649;48.090;9.754;2022-10-16T16:41:23;17.60;99.90
22966;DHT22;11649;48.090;9.754;2022-10-16T16:43:52;17.40;99.90
22966;DHT22;11649;48.090;9.754;2022-10-16T16:46:20;17.30;99.90
22966;DHT22;11649;48.090;9.754;2022-10-16T16:48:47;17.20;99.90
22966;DHT22;11649;48.090;9.754;2022-10-16T16:51:17;17.10;99.90
22966;DHT22;11649;48.090;9.754;2022-10-16T16:53:49;17.00;99.90
22966;DHT22;11649;48.090;9.754;2022-10-16T16:56:17;16.90;99.90
22966;DHT22;11649;48.090;9.754;2022-10-16T16:58:45;16.70;99.90
22966;DHT22;11649;48.090;9.754;2022-10-16T17:01:12;17.10;99.90
22966;DHT22;11649;48.090;9.754;2022-10-16T17:03:49;16.30;99.90
22966;DHT22;11649;48.090;9.754;2022-10-16T17:06:18;16.30;99.90
22966;DHT22;11649;48.090;9.754;2022-10-16T17:08:47;16.20;99.90
22966;DHT22;11649;48.090;9.754;2022-10-16T17:11:17;16.20;99.90
22966;DHT22;11649;48.090;9.754;2022-10-16T17:13:44;16.30;99.90
22966;DHT22;11649;48.090;9.754;2022-10-16T17:16:11;16.30;99.90
22966;DHT22;11649;48.090;9.754;2022-10-16T17:18:38;16.30;99.90
22966;DHT22;11649;48.090;9.754;2022-10-16T17:21:07;16.70;99.90
22966;DHT22;11649;48.090;9.754;2022-10-16T17:23:35;16.70;99.90
22966;DHT22;11649;48.090;9.754;2022-10-16T17:26:14;16.30;99.90
22966;DHT22;11649;48.090;9.754;2022-10-16T17:28:41;16.20;99.90
22966;DHT22;11649;48.090;9.754;2022-10-16T17:31:14;16.20;99.90
22966;DHT22;11649;48.090;9.754;2022-10-16T17:33:42;16.00;99.90
22966;DHT22;11649;48.090;9.754;2022-10-16T17:36:09;16.00;99.90
22966;DHT22;11649;48.090;9.754;2022-10-16T17:38:37;15.90;99.90
22966;DHT22;11649;48.090;9.754;2022-10-16T17:43:42;15.90;99.90